Time;durP1;ratioP1;P1;durP2;ratioP2;P2;SDS_P1;SDS_P2;PMS_P1;PMS_P2;Temp;Humidity;BMP_temperature;BMP_pressure;BME280_temperature;BME280_humidity;BME280_pressure;Samples;Min_cycle;Max_cycle;Signal;HPM_P1;HPM_P2
2022/09/28 00:00:57;;;;;;;6.33;1.40;;;10.70;99.90;;;;;;5053739;28;20467;-77
2022/09/28 00:03:43;;;;;;;3.33;1.27;;;10.70;99.90;;;;;;5044459;28;20527;-77
2022/09/28 00:06:29;;;;;;;4.03;1.40;;;10.80;99.90;;;;;;5052748;28;20442;-77
2022/09/28 00:09:17;;;;;;;4.43;1.50;;;10.80;99.90;;;;;;5045969;28;20437;-77
2022/09/28 00:12:03;;;;;;;3.30;0.97;;;10.80;99.90;;;;;;5044735;28;20445;-77
2022/09/28 00:14:48;;;;;;;4.50;1.20;;;10.70;99.90;;;;;;5057619;28;20439;-77
2022/09/28 00:17:35;;;;;;;3.80;1.70;;;10.60;99.90;;;;;;5061648;28;20990;-77
2022/09/28 00:20:21;;;;;;;5.20;1.47;;;10.50;99.90;;;;;;5051686;28;20503;-77
2022/09/28 00:23:07;;;;;;;7.60;1.50;;;10.60;99.90;;;;;;5053767;28;21105;-77
2022/09/28 00:25:54;;;;;;;3.37;1.60;;;10.60;99.90;;;;;;5059877;28;20437;-77
2022/09/28 00:28:39;;;;;;;3.63;1.67;;;10.70;99.90;;;;;;5050770;28;20957;-76
2022/09/28 00:31:27;;;;;;;2.03;1.27;;;10.60;99.90;;;;;;5049251;28;20946;-75
2022/09/28 00:34:13;;;;;;;2.80;1.40;;;10.70;99.90;;;;;;5063317;28;20602;-77
2022/09/28 00:37:00;;;;;;;4.03;1.87;;;10.70;99.90;;;;;;5063748;28;20471;-77
2022/09/28 00:39:48;;;;;;;3.50;1.40;;;10.70;99.90;;;;;;5061628;28;20431;-77
2022/09/28 00:42:35;;;;;;;3.40;1.40;;;10.70;99.90;;;;;;5053341;28;20985;-77
2022/09/28 00:45:23;;;;;;;2.40;1.40;;;10.70;99.90;;;;;;5045911;28;20427;-77
2022/09/28 00:48:09;;;;;;;2.40;1.17;;;10.70;99.90;;;;;;5056241;28;20394;-77
2022/09/28 00:50:55;;;;;;;2.13;1.43;;;10.60;99.90;;;;;;5053770;28;20463;-77
2022/09/28 00:53:43;;;;;;;4.00;1.50;;;10.60;99.90;;;;;;5058279;28;20419;-77
2022/09/28 00:56:33;;;;;;;4.63;1.77;;;10.70;99.90;;;;;;5050899;28;20447;-77
2022/09/28 00:59:23;;;;;;;6.90;2.20;;;10.70;99.90;;;;;;5049233;28;20510;-77
2022/09/28 01:02:10;;;;;;;7.53;1.50;;;10.60;99.90;;;;;;5046609;28;20521;-78
2022/09/28 01:04:57;;;;;;;5.77;1.70;;;10.70;99.90;;;;;;5053376;28;20506;-77
2022/09/28 01:07:44;;;;;;;2.50;1.70;;;10.60;99.90;;;;;;5049563;28;20433;-77
2022/09/28 01:10:31;;;;;;;2.20;1.30;;;10.60;99.90;;;;;;5046258;28;20442;-77
2022/09/28 01:13:18;;;;;;;2.20;1.50;;;10.60;99.90;;;;;;5047461;28;20988;-77
2022/09/28 01:16:14;;;;;;;5.97;1.87;;;10.60;99.90;;;;;;5056565;28;20471;-78
2022/09/28 01:19:12;;;;;;;2.80;1.63;;;10.70;99.90;;;;;;5049618;28;20522;-77
2022/09/28 01:22:18;;;;;;;2.90;1.63;;;10.70;99.90;;;;;;5049171;28;20630;-77
2022/09/28 01:25:10;;;;;;;5.70;1.90;;;10.70;99.90;;;;;;5057724;28;20463;-78
2022/09/28 01:28:03;;;;;;;4.03;1.67;;;10.70;99.90;;;;;;5049147;28;20460;-77
2022/09/28 01:30:59;;;;;;;4.13;1.30;;;10.70;99.90;;;;;;5047111;28;21089;-77
2022/09/28 01:33:48;;;;;;;4.30;1.60;;;10.70;99.90;;;;;;5058690;28;20901;-77
2022/09/28 01:36:39;;;;;;;2.10;1.30;;;10.70;99.90;;;;;;5058997;28;20471;-77
2022/09/28 01:39:30;;;;;;;1.87;1.30;;;10.70;99.90;;;;;;5047662;28;20440;-77
2022/09/28 01:42:21;;;;;;;3.50;1.30;;;10.70;99.90;;;;;;5056398;28;20522;-77
2022/09/28 01:45:14;;;;;;;3.53;1.17;;;10.70;99.90;;;;;;5064989;28;20409;-78
2022/09/28 01:48:04;;;;;;;4.37;1.40;;;10.70;99.90;;;;;;5066352;28;20426;-77
2022/09/28 01:50:54;;;;;;;2.50;1.17;;;10.80;99.90;;;;;;5043647;28;20464;-77
2022/09/28 01:53:45;;;;;;;2.40;1.37;;;10.90;99.90;;;;;;5044136;28;20432;-78
2022/09/28 01:56:38;;;;;;;4.47;1.27;;;11.00;99.90;;;;;;5054318;28;20962;-77
2022/09/28 01:59:27;;;;;;;2.33;1.07;;;11.00;99.90;;;;;;5046970;28;20448;-77
2022/09/28 02:02:18;;;;;;;1.90;0.90;;;11.00;99.90;;;;;;5056975;28;20404;-77
2022/09/28 02:05:08;;;;;;;3.60;0.70;;;10.90;99.90;;;;;;5053872;28;20431;-77
2022/09/28 02:07:59;;;;;;;7.17;1.03;;;10.90;99.90;;;;;;5056479;28;20526;-77
2022/09/28 02:10:49;;;;;;;1.50;0.80;;;10.90;99.90;;;;;;5048342;28;20980;-77
2022/09/28 02:13:39;;;;;;;1.80;0.87;;;10.90;99.90;;;;;;5047448;28;20888;-77
2022/09/28 02:16:31;;;;;;;3.50;0.90;;;10.90;99.90;;;;;;5051133;28;20463;-77
2022/09/28 02:19:20;;;;;;;1.90;0.80;;;10.90;99.90;;;;;;5055266;28;20552;-77
2022/09/28 02:22:22;;;;;;;5.20;1.10;;;10.90;99.90;;;;;;5052766;28;20436;-77
2022/09/28 02:25:11;;;;;;;3.00;0.90;;;11.00;99.90;;;;;;5054126;28;20427;-77
2022/09/28 02:28:00;;;;;;;3.60;0.97;;;10.90;99.90;;;;;;5062650;28;21042;-77
2022/09/28 02:30:46;;;;;;;1.93;0.77;;;11.00;99.90;;;;;;5063746;28;20809;-77
2022/09/28 02:33:36;;;;;;;2.77;0.87;;;10.90;99.90;;;;;;5046078;28;21229;-77
2022/09/28 02:36:25;;;;;;;5.53;1.00;;;11.00;99.90;;;;;;5045969;28;20844;-76
2022/09/28 02:39:14;;;;;;;1.30;0.90;;;11.00;99.90;;;;;;5048428;28;20416;-77
2022/09/28 02:42:14;;;;;;;1.70;0.90;;;11.00;99.90;;;;;;5046758;28;20467;-77
2022/09/28 02:45:17;;;;;;;3.47;1.03;;;10.90;99.90;;;;;;5049467;28;20460;-77
2022/09/28 02:48:15;;;;;;;2.10;1.13;;;10.80;99.90;;;;;;5046406;28;20447;-77
2022/09/28 02:51:11;;;;;;;2.17;1.10;;;10.80;99.90;;;;;;5045316;28;20492;-77
2022/09/28 02:54:26;;;;;;;1.60;0.90;;;10.80;99.90;;;;;;5037676;28;20447;-77
2022/09/28 02:57:28;;;;;;;2.00;0.80;;;10.90;99.90;;;;;;5046243;28;20561;-77
2022/09/28 03:00:18;;;;;;;2.40;1.10;;;11.00;99.90;;;;;;5045559;28;20852;-77
2022/09/28 03:03:15;;;;;;;2.30;0.90;;;11.00;99.90;;;;;;5043633;28;20927;-77
2022/09/28 03:06:04;;;;;;;2.67;0.90;;;11.10;99.90;;;;;;5048086;28;20455;-77
2022/09/28 03:08:57;;;;;;;3.90;0.90;;;11.00;99.90;;;;;;5046567;28;20552;-77
2022/09/28 03:11:49;;;;;;;3.63;1.10;;;10.90;99.90;;;;;;5044342;28;20464;-77
2022/09/28 03:14:35;;;;;;;1.60;0.80;;;10.90;99.90;;;;;;5042902;28;20929;-77
2022/09/28 03:17:21;;;;;;;2.13;0.97;;;10.90;99.90;;;;;;5046084;28;20610;-77
2022/09/28 03:20:09;;;;;;;2.03;1.10;;;11.00;99.90;;;;;;5041552;28;22252;-77
2022/09/28 03:22:55;;;;;;;1.90;1.20;;;11.00;99.90;;;;;;5047037;28;20448;-77
2022/09/28 03:25:41;;;;;;;7.73;1.30;;;10.90;99.90;;;;;;5049767;28;20559;-77
2022/09/28 03:28:28;;;;;;;2.17;1.60;;;10.90;99.90;;;;;;5049609;28;20488;-77
2022/09/28 03:31:14;;;;;;;3.90;1.93;;;10.90;99.90;;;;;;5056494;28;20437;-76
2022/09/28 03:33:59;;;;;;;3.17;1.80;;;10.90;99.90;;;;;;5048168;28;20452;-76
2022/09/28 03:36:45;;;;;;;3.10;1.63;;;10.90;99.90;;;;;;5055021;28;20484;-76
2022/09/28 03:39:31;;;;;;;2.90;1.23;;;10.90;99.90;;;;;;5048911;28;20857;-76
2022/09/28 03:42:16;;;;;;;3.30;1.83;;;10.90;99.90;;;;;;5053917;28;20472;-76
2022/09/28 03:45:04;;;;;;;3.30;1.90;;;11.00;99.90;;;;;;5050017;28;20941;-76
2022/09/28 03:47:50;;;;;;;7.00;1.97;;;11.00;99.90;;;;;;5048901;28;20444;-76
2022/09/28 03:50:36;;;;;;;3.13;1.83;;;11.10;99.90;;;;;;5046675;28;20468;-76
2022/09/28 03:53:22;;;;;;;3.90;2.20;;;11.00;99.90;;;;;;5061094;28;20404;-76
2022/09/28 03:56:11;;;;;;;5.10;2.60;;;11.00;99.90;;;;;;5061580;28;20408;-76
2022/09/28 03:58:57;;;;;;;3.70;2.10;;;11.00;99.90;;;;;;5045068;28;20414;-76
2022/09/28 04:01:44;;;;;;;5.33;2.30;;;11.00;99.90;;;;;;5058824;28;20522;-76
2022/09/28 04:04:29;;;;;;;5.10;2.10;;;11.00;99.90;;;;;;5038948;28;20421;-76
2022/09/28 04:07:16;;;;;;;3.97;2.93;;;11.00;99.90;;;;;;5047338;28;20482;-76
2022/09/28 04:10:02;;;;;;;7.90;3.00;;;10.90;99.90;;;;;;5050675;28;20471;-77
2022/09/28 04:12:48;;;;;;;4.60;2.90;;;10.90;99.90;;;;;;5046205;28;20450;-76
2022/09/28 04:15:35;;;;;;;4.33;3.10;;;10.90;99.90;;;;;;5048244;28;20813;-76
2022/09/28 04:18:23;;;;;;;4.00;3.00;;;11.00;99.90;;;;;;5045066;28;20467;-76
2022/09/28 04:21:11;;;;;;;5.00;3.00;;;11.00;99.90;;;;;;5077033;22;20633;-79
2022/09/28 04:23:58;;;;;;;5.53;3.73;;;11.00;99.90;;;;;;5055108;28;20458;-79
2022/09/28 04:26:43;;;;;;;6.50;3.53;;;11.00;99.90;;;;;;5056118;28;20483;-79
2022/09/28 04:29:30;;;;;;;5.67;3.57;;;11.00;99.90;;;;;;5060743;28;20809;-79
2022/09/28 04:32:15;;;;;;;6.67;3.50;;;11.00;99.90;;;;;;5076346;28;20446;-79
2022/09/28 04:35:02;;;;;;;7.23;3.10;;;11.00;99.90;;;;;;5076798;28;20488;-79
2022/09/28 04:37:48;;;;;;;5.53;3.23;;;10.90;99.90;;;;;;5073548;28;20820;-79
2022/09/28 04:40:34;;;;;;;7.10;4.20;;;10.80;99.90;;;;;;5082603;28;20847;-79
2022/09/28 04:43:20;;;;;;;4.93;3.43;;;10.70;99.90;;;;;;5077047;28;20903;-79
2022/09/28 04:46:06;;;;;;;8.20;4.70;;;10.70;99.90;;;;;;5086907;28;20428;-79
2022/09/28 04:48:51;;;;;;;6.10;4.53;;;10.80;99.90;;;;;;5078518;28;20806;-79
2022/09/28 04:51:38;;;;;;;6.83;4.50;;;10.80;99.90;;;;;;5076673;28;20473;-79
2022/09/28 04:54:24;;;;;;;5.80;4.17;;;10.70;99.90;;;;;;5082852;28;20483;-79
2022/09/28 04:57:10;;;;;;;5.50;4.23;;;10.70;99.90;;;;;;5075702;28;20609;-79
2022/09/28 04:59:55;;;;;;;5.53;4.53;;;10.60;99.90;;;;;;5077100;28;20500;-79
2022/09/28 05:02:41;;;;;;;8.03;4.70;;;10.60;99.90;;;;;;5076702;28;20520;-79
2022/09/28 05:05:27;;;;;;;7.03;4.50;;;10.60;99.90;;;;;;5074780;28;20443;-79
2022/09/28 05:08:14;;;;;;;10.03;5.30;;;10.60;99.90;;;;;;5079966;28;20433;-79
2022/09/28 05:11:02;;;;;;;5.83;4.40;;;10.60;99.90;;;;;;5082284;28;20563;-79
2022/09/28 05:13:49;;;;;;;7.70;3.90;;;10.60;99.90;;;;;;5077128;28;20429;-79
2022/09/28 05:16:35;;;;;;;9.67;4.47;;;10.60;99.90;;;;;;5065439;28;20456;-79
2022/09/28 05:19:20;;;;;;;10.90;4.40;;;10.60;99.90;;;;;;5079861;28;20480;-79
2022/09/28 05:22:10;;;;;;;7.53;4.23;;;10.50;99.90;;;;;;5077096;28;20903;-79
2022/09/28 05:24:59;;;;;;;9.83;4.43;;;10.50;99.90;;;;;;5083500;28;20425;-79
2022/09/28 05:27:44;;;;;;;6.07;3.90;;;10.50;99.90;;;;;;5069019;28;20421;-78
2022/09/28 05:30:30;;;;;;;7.87;4.30;;;10.50;99.90;;;;;;5073990;28;20548;-79
2022/09/28 05:33:16;;;;;;;7.47;4.27;;;10.50;99.90;;;;;;5074002;28;20520;-79
2022/09/28 05:36:02;;;;;;;5.47;4.30;;;10.60;99.90;;;;;;5083029;28;20580;-78
2022/09/28 05:38:47;;;;;;;7.30;5.10;;;10.70;99.90;;;;;;5083847;28;20445;-79
2022/09/28 05:41:35;;;;;;;8.60;4.90;;;10.60;99.90;;;;;;5084612;28;20560;-78
2022/09/28 05:44:20;;;;;;;8.67;5.53;;;10.70;99.90;;;;;;5088995;28;20414;-79
2022/09/28 05:47:06;;;;;;;8.70;5.50;;;10.60;99.90;;;;;;5081017;28;20442;-79
2022/09/28 05:49:52;;;;;;;10.10;5.20;;;10.60;99.90;;;;;;5080404;28;20868;-78
2022/09/28 05:52:38;;;;;;;9.20;4.97;;;10.60;99.90;;;;;;5087545;28;20440;-79
2022/09/28 05:55:24;;;;;;;12.30;4.60;;;10.60;99.90;;;;;;5081228;28;20446;-79
2022/09/28 05:58:11;;;;;;;6.93;4.07;;;10.50;99.90;;;;;;5091778;28;20474;-78
2022/09/28 06:00:57;;;;;;;7.47;5.10;;;10.60;99.90;;;;;;5093318;28;20433;-78
2022/09/28 06:03:43;;;;;;;8.67;5.10;;;10.60;99.90;;;;;;5088576;28;20561;-80
2022/09/28 06:06:28;;;;;;;6.17;4.23;;;10.60;99.90;;;;;;5065946;28;20533;-79
2022/09/28 06:09:14;;;;;;;7.00;4.57;;;10.70;99.90;;;;;;5078214;28;20553;-78
2022/09/28 06:12:00;;;;;;;9.47;4.13;;;10.70;99.90;;;;;;5074002;28;20466;-80
2022/09/28 06:14:48;;;;;;;8.77;3.87;;;10.70;99.90;;;;;;5081296;28;20524;-79
2022/09/28 06:17:33;;;;;;;4.87;3.80;;;10.70;99.90;;;;;;5084534;28;20453;-78
2022/09/28 06:20:19;;;;;;;13.60;3.70;;;10.80;99.90;;;;;;5079360;28;20510;-79
2022/09/28 06:23:05;;;;;;;8.40;3.60;;;10.80;99.90;;;;;;5078004;28;20447;-78
2022/09/28 06:25:51;;;;;;;10.70;4.93;;;10.80;99.90;;;;;;5065548;28;20451;-77
2022/09/28 06:28:37;;;;;;;8.23;4.10;;;10.70;99.90;;;;;;5081141;28;20941;-79
2022/09/28 06:31:24;;;;;;;5.07;3.63;;;10.60;99.90;;;;;;5068641;28;20568;-78
2022/09/28 06:34:10;;;;;;;6.70;4.10;;;10.60;99.90;;;;;;5073431;28;20434;-77
2022/09/28 06:36:55;;;;;;;6.80;4.17;;;10.50;99.90;;;;;;5067389;28;20459;-77
2022/09/28 06:39:41;;;;;;;10.70;4.20;;;10.50;99.90;;;;;;5069513;28;20665;-77
2022/09/28 06:42:27;;;;;;;7.57;3.83;;;10.60;99.90;;;;;;5071171;28;20547;-77
2022/09/28 06:45:12;;;;;;;6.90;4.27;;;10.70;99.90;;;;;;5068052;28;20428;-77
2022/09/28 06:48:01;;;;;;;8.40;4.80;;;10.80;99.90;;;;;;5073718;28;20448;-77
2022/09/28 06:50:47;;;;;;;5.40;3.60;;;10.80;99.90;;;;;;5084842;28;20428;-77
2022/09/28 06:53:32;;;;;;;9.90;4.20;;;10.70;99.90;;;;;;5077170;28;20425;-77
2022/09/28 06:56:19;;;;;;;11.13;4.50;;;10.80;99.90;;;;;;5067946;28;20794;-77
2022/09/28 06:59:05;;;;;;;6.97;3.53;;;10.70;99.90;;;;;;5079338;28;20467;-77
2022/09/28 07:01:52;;;;;;;8.00;3.80;;;10.70;99.90;;;;;;5086421;28;20815;-77
2022/09/28 07:04:41;;;;;;;6.97;3.20;;;10.70;99.90;;;;;;5080771;28;20455;-77
2022/09/28 07:07:27;;;;;;;5.13;3.07;;;10.80;99.90;;;;;;5064250;28;20429;-77
2022/09/28 07:10:12;;;;;;;8.57;3.30;;;10.80;99.90;;;;;;5077084;28;20425;-77
2022/09/28 07:13:01;;;;;;;6.03;3.00;;;10.60;99.90;;;;;;5077405;28;20580;-78
2022/09/28 07:15:47;;;;;;;15.93;3.30;;;10.70;99.90;;;;;;5070688;28;20493;-79
2022/09/28 07:18:32;;;;;;;6.57;3.00;;;10.70;99.90;;;;;;5072160;28;20539;-78
2022/09/28 07:21:19;;;;;;;5.73;2.77;;;10.70;99.90;;;;;;5070071;28;20593;-78
2022/09/28 07:24:05;;;;;;;5.10;2.23;;;10.90;99.90;;;;;;5085873;28;20421;-78
2022/09/28 07:26:51;;;;;;;4.90;2.23;;;10.90;99.90;;;;;;5086837;28;20437;-78
2022/09/28 07:29:37;;;;;;;4.93;2.80;;;11.00;99.90;;;;;;5097456;28;20438;-78
2022/09/28 07:32:23;;;;;;;5.03;3.53;;;11.00;99.90;;;;;;5092230;28;20450;-78
2022/09/28 07:35:09;;;;;;;7.73;3.00;;;11.10;99.90;;;;;;5080369;28;20446;-79
2022/09/28 07:38:00;;;;;;;3.93;2.47;;;11.20;99.90;;;;;;5093724;28;20599;-78
2022/09/28 07:43:49;;;;;;;6.47;2.80;;;11.20;99.90;;;;;;5086234;28;20449;-78
2022/09/28 07:46:35;;;;;;;4.50;2.20;;;11.30;99.90;;;;;;5071445;28;20858;-78
2022/09/28 07:49:21;;;;;;;4.30;1.93;;;11.30;99.90;;;;;;5080431;28;20441;-78
2022/09/28 07:52:07;;;;;;;5.63;3.03;;;11.30;99.90;;;;;;5094021;28;20483;-78
2022/09/28 07:54:55;;;;;;;3.37;1.80;;;11.30;99.90;;;;;;5076152;28;20443;-78
2022/09/28 07:57:40;;;;;;;5.70;2.37;;;11.30;99.90;;;;;;5103277;28;20508;-78
2022/09/28 08:00:26;;;;;;;4.90;2.13;;;11.40;99.90;;;;;;5095066;28;20942;-79
2022/09/28 08:03:12;;;;;;;2.90;2.10;;;11.40;99.90;;;;;;5084659;28;20404;-78
2022/09/28 08:05:58;;;;;;;3.57;2.07;;;11.30;99.90;;;;;;5082301;28;20422;-78
2022/09/28 08:08:45;;;;;;;4.13;1.83;;;11.30;99.90;;;;;;5095083;28;20392;-79
2022/09/28 08:11:32;;;;;;;3.50;1.80;;;11.10;99.90;;;;;;5101475;28;20441;-78
2022/09/28 08:14:18;;;;;;;3.27;1.77;;;11.20;99.90;;;;;;5073034;28;20506;-79
2022/09/28 08:17:04;;;;;;;4.00;1.77;;;11.10;99.90;;;;;;5095952;28;20400;-78
2022/09/28 08:22:53;;;;;;;7.73;2.10;;;11.00;99.90;;;;;;5078409;28;20390;-78
2022/09/28 08:25:39;;;;;;;6.07;1.90;;;11.10;99.90;;;;;;5082715;28;20423;-78
2022/09/28 08:28:26;;;;;;;2.30;1.70;;;11.20;99.90;;;;;;5092910;28;21119;-79
2022/09/28 08:31:12;;;;;;;2.83;1.50;;;11.20;99.90;;;;;;5100583;28;20449;-79
2022/09/28 08:33:58;;;;;;;9.50;1.67;;;11.20;99.90;;;;;;5076902;28;20459;-79
2022/09/28 08:36:43;;;;;;;5.20;1.27;;;11.30;99.90;;;;;;5093353;28;20515;-79
2022/09/28 08:39:29;;;;;;;8.20;1.47;;;11.40;99.90;;;;;;5099829;28;20469;-78
2022/09/28 08:42:31;;;;;;;3.10;1.60;;;11.40;99.90;;;;;;5093619;28;20489;-79
2022/09/28 08:45:23;;;;;;;2.80;1.43;;;11.30;99.90;;;;;;5085884;28;20422;-79
2022/09/28 08:51:22;;;;;;;2.67;1.13;;;11.40;99.90;;;;;;5082326;28;20447;-79
2022/09/28 08:54:15;;;;;;;3.00;1.40;;;11.40;99.90;;;;;;5091099;28;20489;-78
2022/09/28 08:57:06;;;;;;;2.43;1.53;;;11.60;99.90;;;;;;5101504;28;21249;-78
2022/09/28 08:59:53;;;;;;;2.07;1.40;;;11.60;99.90;;;;;;5085159;28;20485;-79
2022/09/28 09:02:41;;;;;;;3.27;1.20;;;11.60;99.90;;;;;;5087986;28;20495;-79
2022/09/28 09:05:44;;;;;;;3.30;1.20;;;11.70;99.90;;;;;;5095408;28;20473;-79
2022/09/28 09:08:41;;;;;;;5.93;1.23;;;11.80;99.90;;;;;;5093543;28;20438;-78
2022/09/28 09:11:49;;;;;;;5.87;1.83;;;11.80;99.90;;;;;;5099926;28;20438;-78
2022/09/28 09:14:52;;;;;;;3.20;1.23;;;11.90;99.90;;;;;;5079008;28;20412;-79
2022/09/28 09:17:47;;;;;;;5.03;1.67;;;11.90;99.90;;;;;;5105340;28;20408;-79
2022/09/28 09:20:41;;;;;;;5.80;2.17;;;11.90;99.90;;;;;;5098072;28;20418;-78
2022/09/28 09:23:36;;;;;;;2.30;1.40;;;12.00;99.90;;;;;;5082641;28;20468;-78
2022/09/28 09:26:31;;;;;;;2.60;1.40;;;12.00;99.90;;;;;;5087045;28;20468;-79
2022/09/28 09:29:29;;;;;;;4.63;1.47;;;12.00;99.90;;;;;;5099374;28;20401;-79
2022/09/28 09:32:40;;;;;;;3.27;1.77;;;12.10;99.90;;;;;;5092656;28;20542;-79
2022/09/28 09:36:00;;;;;;;4.27;1.80;;;12.10;99.90;;;;;;5104257;28;20426;-78
2022/09/28 09:38:56;;;;;;;10.07;1.80;;;12.10;99.90;;;;;;5104016;28;20483;-79
2022/09/28 09:41:57;;;;;;;3.07;1.50;;;12.10;99.90;;;;;;5092318;28;20790;-78
2022/09/28 09:45:25;;;;;;;8.73;1.67;;;12.10;99.90;;;;;;5092411;28;20439;-78
2022/09/28 09:48:17;;;;;;;2.93;1.50;;;12.10;99.90;;;;;;5097205;28;20448;-79
2022/09/28 09:51:13;;;;;;;2.63;1.30;;;12.30;99.90;;;;;;5090365;28;20574;-79
2022/09/28 09:54:05;;;;;;;3.00;1.27;;;12.50;99.90;;;;;;5074171;28;20434;-79
2022/09/28 09:56:55;;;;;;;3.07;1.37;;;12.50;99.90;;;;;;5077577;28;20420;-79
2022/09/28 09:59:43;;;;;;;4.70;1.43;;;12.40;99.90;;;;;;5071216;28;20445;-79
2022/09/28 10:02:31;;;;;;;4.77;1.33;;;12.40;99.90;;;;;;5074126;28;20441;-80
2022/09/28 10:05:21;;;;;;;7.93;1.80;;;12.40;99.90;;;;;;5073088;28;20515;-80
2022/09/28 10:08:15;;;;;;;2.80;1.40;;;12.30;99.90;;;;;;5092166;28;20408;-80
2022/09/28 10:11:07;;;;;;;2.20;1.17;;;12.30;99.90;;;;;;5085077;28;20459;-80
2022/09/28 10:13:53;;;;;;;3.53;1.37;;;12.30;99.90;;;;;;5072550;28;20393;-80
2022/09/28 10:16:38;;;;;;;5.90;1.30;;;12.40;99.90;;;;;;5085600;28;20419;-79
2022/09/28 10:19:30;;;;;;;3.60;1.30;;;12.50;99.90;;;;;;5079805;28;20464;-80
2022/09/28 10:22:20;;;;;;;3.40;1.40;;;12.90;99.90;;;;;;5065947;22;20503;-77
2022/09/28 10:25:08;;;;;;;5.20;1.23;;;13.30;99.90;;;;;;5050040;28;20443;-76
2022/09/28 10:27:55;;;;;;;4.90;1.40;;;13.50;99.90;;;;;;5047111;28;20446;-76
2022/09/28 10:30:43;;;;;;;3.07;1.60;;;13.50;99.90;;;;;;5052655;28;20877;-76
2022/09/28 10:33:31;;;;;;;3.40;1.17;;;13.30;99.90;;;;;;5046460;28;20443;-76
2022/09/28 10:36:16;;;;;;;2.00;1.20;;;13.30;99.90;;;;;;5046151;28;20455;-76
2022/09/28 10:39:03;;;;;;;2.73;1.27;;;13.30;99.90;;;;;;5041969;28;20447;-76
2022/09/28 10:41:51;;;;;;;3.50;1.20;;;13.30;99.90;;;;;;5047126;28;20447;-75
2022/09/28 10:44:50;;;;;;;3.20;1.27;;;13.40;99.90;;;;;;5046988;28;20443;-76
2022/09/28 10:47:36;;;;;;;2.80;1.80;;;13.70;99.90;;;;;;5052814;28;20586;-77
2022/09/28 10:50:25;;;;;;;2.60;1.10;;;14.10;99.90;;;;;;5052261;28;20775;-77
2022/09/28 10:53:17;;;;;;;3.07;1.47;;;14.40;99.90;;;;;;5052208;28;20442;-77
2022/09/28 10:56:06;;;;;;;4.80;1.40;;;14.40;99.90;;;;;;5049477;28;20582;-76
2022/09/28 10:58:53;;;;;;;3.93;1.40;;;13.90;99.90;;;;;;5035956;28;20439;-77
2022/09/28 11:01:38;;;;;;;2.90;1.10;;;13.80;99.90;;;;;;5049054;28;20785;-76
2022/09/28 11:04:28;;;;;;;1.47;0.80;;;13.70;99.90;;;;;;5054028;28;20425;-76
2022/09/28 11:07:18;;;;;;;4.80;1.10;;;13.80;99.90;;;;;;5055214;28;20594;-77
2022/09/28 11:10:04;;;;;;;5.93;1.03;;;13.90;99.90;;;;;;5048352;28;20443;-76
2022/09/28 11:12:50;;;;;;;2.67;0.80;;;13.90;99.90;;;;;;5049684;28;20483;-76
2022/09/28 11:15:43;;;;;;;4.90;1.10;;;14.30;99.90;;;;;;5054148;28;20455;-76
2022/09/28 11:18:31;;;;;;;5.03;1.17;;;14.40;93.10;;;;;;5049515;28;20442;-76
2022/09/28 11:21:19;;;;;;;5.53;1.07;;;14.50;96.90;;;;;;5044178;28;20529;-76
2022/09/28 11:24:06;;;;;;;5.10;0.90;;;14.60;98.80;;;;;;5046169;28;20520;-76
2022/09/28 11:26:55;;;;;;;6.40;1.33;;;14.40;99.80;;;;;;5049000;28;20820;-77
2022/09/28 11:29:43;;;;;;;4.53;1.40;;;14.30;98.30;;;;;;5052800;28;20415;-76
2022/09/28 11:32:40;;;;;;;5.93;1.10;;;14.40;99.90;;;;;;5048068;28;20482;-76
2022/09/28 11:35:37;;;;;;;3.10;0.90;;;14.60;99.90;;;;;;5052938;28;20415;-76
2022/09/28 11:38:32;;;;;;;4.13;1.17;;;14.80;98.70;;;;;;5052901;28;20425;-76
2022/09/28 11:41:36;;;;;;;3.27;1.43;;;14.50;87.90;;;;;;5046927;28;20508;-76
2022/09/28 11:44:37;;;;;;;4.13;1.10;;;14.20;89.60;;;;;;5050956;28;20526;-77
2022/09/28 11:47:45;;;;;;;5.07;1.50;;;13.90;97.50;;;;;;5045431;28;20467;-76
2022/09/28 11:50:44;;;;;;;2.57;1.20;;;13.70;99.90;;;;;;5048873;28;20461;-77
2022/09/28 11:53:34;;;;;;;2.33;1.00;;;13.60;99.90;;;;;;5048407;28;20992;-76
2022/09/28 11:56:32;;;;;;;1.97;1.03;;;13.60;99.90;;;;;;5044562;28;20538;-76
2022/09/28 11:59:25;;;;;;;6.33;1.10;;;13.70;99.90;;;;;;5049280;28;20461;-76
2022/09/28 12:02:16;;;;;;;3.00;0.97;;;13.70;99.90;;;;;;5045620;28;20552;-73
2022/09/28 12:05:12;;;;;;;5.67;1.10;;;13.60;99.90;;;;;;5044890;28;20451;-76
2022/09/28 12:08:02;;;;;;;3.37;0.90;;;13.60;99.90;;;;;;5052909;28;20426;-76
2022/09/28 12:10:54;;;;;;;3.93;1.23;;;13.50;99.90;;;;;;5046106;28;20414;-76
2022/09/28 12:13:44;;;;;;;4.70;1.20;;;13.50;99.90;;;;;;5047835;28;20477;-76
2022/09/28 12:16:35;;;;;;;1.97;0.93;;;13.30;99.90;;;;;;5042252;28;20419;-76
2022/09/28 12:19:28;;;;;;;3.30;1.30;;;13.30;99.90;;;;;;5050626;28;20471;-76
2022/09/28 12:22:19;;;;;;;7.10;0.97;;;13.20;99.90;;;;;;5045024;28;20479;-76
2022/09/28 12:25:12;;;;;;;3.70;1.10;;;13.20;99.90;;;;;;5051483;28;20443;-77
2022/09/28 12:28:01;;;;;;;3.83;1.13;;;13.20;99.90;;;;;;5057306;28;20409;-76
2022/09/28 12:30:49;;;;;;;2.97;1.00;;;13.20;99.90;;;;;;5050615;28;20585;-77
2022/09/28 12:33:34;;;;;;;3.03;1.03;;;13.20;99.90;;;;;;5049793;28;20557;-77
2022/09/28 12:36:39;;;;;;;3.30;1.60;;;13.30;99.90;;;;;;5055568;28;20570;-76
2022/09/28 12:39:46;;;;;;;3.97;0.97;;;13.20;99.90;;;;;;5049855;28;20608;-76
2022/09/28 12:42:52;;;;;;;4.23;2.27;;;13.40;99.90;;;;;;5056129;28;20605;-76
2022/09/28 12:45:54;;;;;;;5.23;2.20;;;13.60;99.90;;;;;;5054821;28;20412;-76
2022/09/28 12:48:56;;;;;;;6.80;2.27;;;13.60;99.90;;;;;;5046935;28;20517;-76
2022/09/28 12:51:48;;;;;;;4.17;1.43;;;13.90;99.90;;;;;;5049251;28;20610;-77
2022/09/28 12:55:03;;;;;;;11.20;7.20;;;13.90;99.90;;;;;;5051071;28;20511;-76
2022/09/28 12:57:59;;;;;;;6.03;4.03;;;13.70;96.60;;;;;;5054525;28;20424;-76
2022/09/28 13:00:54;;;;;;;35.63;17.97;;;13.60;99.90;;;;;;5050440;28;20464;-77
2022/09/28 13:04:16;;;;;;;6.17;3.60;;;13.70;99.90;;;;;;5052799;28;20452;-76
2022/09/28 13:07:06;;;;;;;3.20;1.50;;;13.70;99.90;;;;;;5020217;28;20600;-76
2022/09/28 13:10:12;;;;;;;2.33;1.40;;;13.70;98.50;;;;;;5046553;28;20436;-76
2022/09/28 13:13:23;;;;;;;2.90;1.13;;;13.80;97.50;;;;;;5049642;28;20422;-76
2022/09/28 13:16:17;;;;;;;2.03;0.80;;;14.10;99.90;;;;;;5048711;28;20515;-76
2022/09/28 13:19:12;;;;;;;3.07;1.40;;;14.40;95.40;;;;;;5047012;28;20909;-76
2022/09/28 13:22:04;;;;;;;2.53;1.03;;;14.50;92.10;;;;;;5053423;28;20483;-76
2022/09/28 13:24:52;;;;;;;2.53;1.10;;;14.70;90.00;;;;;;5052882;28;20422;-76
2022/09/28 13:27:44;;;;;;;2.40;1.23;;;15.30;91.80;;;;;;5056654;28;20426;-76
2022/09/28 13:30:31;;;;;;;8.77;3.10;;;15.30;70.80;;;;;;5048572;28;20425;-76
2022/09/28 13:33:23;;;;;;;15.80;9.43;;;15.50;77.90;;;;;;5052288;28;20538;-76
2022/09/28 13:36:38;;;;;;;9.10;4.60;;;15.40;75.80;;;;;;5050998;28;20411;-76
2022/09/28 13:39:38;;;;;;;37.07;23.20;;;15.30;81.90;;;;;;5045074;28;20410;-76
2022/09/28 13:42:51;;;;;;;36.03;25.80;;;15.00;76.10;;;;;;5055013;28;20467;-77
2022/09/28 13:45:52;;;;;;;12.97;7.93;;;14.90;81.50;;;;;;5054489;28;20439;-76
2022/09/28 13:48:47;;;;;;;4.70;2.50;;;14.80;93.90;;;;;;5050034;28;20451;-77
2022/09/28 13:51:44;;;;;;;7.93;3.00;;;14.80;90.00;;;;;;5049584;28;20680;-76
2022/09/28 13:54:46;;;;;;;4.97;2.27;;;14.80;90.70;;;;;;5050017;28;20451;-77
2022/09/28 13:57:41;;;;;;;3.77;2.93;;;14.90;91.10;;;;;;5050126;28;20418;-76
2022/09/28 14:00:32;;;;;;;7.50;4.47;;;14.90;96.00;;;;;;5048600;28;20671;-77
2022/09/28 14:03:28;;;;;;;4.43;2.00;;;14.90;92.50;;;;;;5047971;28;20443;-76
2022/09/28 14:06:25;;;;;;;2.90;1.83;;;14.80;89.70;;;;;;5050349;28;20960;-76
2022/09/28 14:09:41;;;;;;;2.80;1.20;;;14.70;89.90;;;;;;5047369;28;20471;-77
2022/09/28 14:12:30;;;;;;;2.73;1.20;;;14.60;85.50;;;;;;5051452;28;20476;-77
2022/09/28 14:15:43;;;;;;;3.13;1.63;;;14.60;85.40;;;;;;5058832;28;20440;-76
2022/09/28 14:18:33;;;;;;;4.10;1.33;;;14.60;84.20;;;;;;5047659;28;20424;-76
2022/09/28 14:22:02;;;;;;;5.87;1.33;;;14.60;87.70;;;;;;5050505;28;20836;-77
2022/09/28 14:25:03;;;;;;;4.73;1.27;;;14.60;91.00;;;;;;5029264;28;20442;-77
2022/09/28 14:28:05;;;;;;;2.87;1.03;;;14.70;94.30;;;;;;5054890;28;20470;-76
2022/09/28 14:30:54;;;;;;;2.57;1.03;;;14.60;99.80;;;;;;5054077;28;20439;-76
2022/09/28 14:33:41;;;;;;;5.23;1.43;;;14.50;99.90;;;;;;5049090;28;20432;-75
2022/09/28 14:43:23;;;;;;;3.20;1.30;;;14.20;99.90;;;;;;5053307;28;20516;-76
2022/09/28 14:46:29;;;;;;;2.40;1.20;;;14.10;99.90;;;;;;5052800;28;20810;-76
2022/09/28 14:49:59;;;;;;;6.00;3.33;;;14.10;99.90;;;;;;5045911;28;20452;-76
2022/09/28 14:52:48;;;;;;;4.53;1.67;;;14.00;99.90;;;;;;4983457;28;20464;-76
2022/09/28 14:55:43;;;;;;;4.53;1.30;;;13.90;99.90;;;;;;4984601;28;20433;-77
2022/09/28 14:58:32;;;;;;;5.27;1.40;;;13.80;99.90;;;;;;5044582;28;20448;-77
2022/09/28 15:01:20;;;;;;;2.57;1.20;;;13.90;99.90;;;;;;5045695;28;20457;-76
2022/09/28 15:04:11;;;;;;;3.30;0.90;;;13.80;99.90;;;;;;5054103;28;20418;-77